Time;durP1;ratioP1;P1;durP2;ratioP2;P2;SDS_P1;SDS_P2;PMS_P1;PMS_P2;Temp;Humidity;BMP_temperature;BMP_pressure;BME280_temperature;BME280_humidity;BME280_pressure;Samples;Min_cycle;Max_cycle;Signal;HPM_P1;HPM_P2
2022/10/12 00:01:32;;;;;;;60.20;42.65;;;14.50;99.90;;;;;;4788677;30;20031;-76
2022/10/12 00:03:58;;;;;;;49.85;39.10;;;14.50;99.90;;;;;;4788706;30;20667;-74
2022/10/12 00:06:25;;;;;;;52.08;40.15;;;14.50;99.90;;;;;;4788546;30;20094;-75
2022/10/12 00:08:53;;;;;;;55.35;44.08;;;14.40;99.90;;;;;;4788165;30;20442;-76
2022/10/12 00:11:22;;;;;;;56.08;42.25;;;14.40;99.90;;;;;;4788268;30;20043;-76
2022/10/12 00:13:48;;;;;;;55.03;41.00;;;14.30;99.90;;;;;;4788552;30;20043;-75
2022/10/12 00:16:16;;;;;;;51.17;39.20;;;14.30;99.90;;;;;;4788432;30;20505;-76
2022/10/12 00:18:42;;;;;;;54.22;38.42;;;14.40;99.90;;;;;;4788382;30;20039;-76
2022/10/12 00:21:14;;;;;;;50.25;39.92;;;14.40;99.90;;;;;;4788561;30;20039;-75
2022/10/12 00:23:40;;;;;;;54.00;39.95;;;14.40;99.90;;;;;;4788339;30;20035;-77
2022/10/12 00:26:09;;;;;;;48.28;39.15;;;14.40;99.90;;;;;;4788413;30;20122;-76
2022/10/12 00:28:35;;;;;;;51.50;40.03;;;14.50;99.90;;;;;;4788096;30;20039;-76
2022/10/12 00:31:05;;;;;;;55.92;40.42;;;14.50;99.90;;;;;;4788250;30;20457;-76
2022/10/12 00:33:31;;;;;;;55.50;39.38;;;14.40;99.90;;;;;;4788156;29;20041;-76
2022/10/12 00:35:57;;;;;;;54.03;41.83;;;14.30;99.90;;;;;;4788254;30;20448;-77
2022/10/12 00:38:23;;;;;;;55.85;41.50;;;14.30;99.90;;;;;;4787366;30;20043;-77
2022/10/12 00:40:49;;;;;;;58.38;44.05;;;14.30;99.90;;;;;;4788107;30;20066;-76
2022/10/12 00:43:33;;;;;;;58.58;42.40;;;14.30;99.90;;;;;;4788199;30;20039;-76
2022/10/12 00:46:02;;;;;;;55.20;40.72;;;14.40;99.90;;;;;;4788080;30;20035;-76
2022/10/12 00:48:28;;;;;;;51.90;40.70;;;14.40;99.90;;;;;;4787917;30;20490;-75
2022/10/12 00:50:55;;;;;;;56.40;40.88;;;14.50;99.90;;;;;;4787894;30;20031;-77
2022/10/12 00:53:25;;;;;;;50.28;38.22;;;14.40;99.90;;;;;;4787756;30;20035;-76
2022/10/12 00:55:57;;;;;;;50.10;41.17;;;14.40;99.90;;;;;;4787858;30;20116;-76
2022/10/12 00:58:23;;;;;;;50.33;39.25;;;14.40;99.90;;;;;;4787509;30;20035;-76
2022/10/12 01:00:50;;;;;;;53.95;42.10;;;14.40;99.90;;;;;;4787706;30;20104;-76
2022/10/12 01:03:20;;;;;;;53.88;39.25;;;14.40;99.90;;;;;;4787763;30;20054;-77
2022/10/12 01:05:47;;;;;;;54.05;42.05;;;14.40;99.90;;;;;;4787614;30;20506;-77
2022/10/12 01:08:13;;;;;;;57.05;43.20;;;14.30;99.90;;;;;;4787630;29;20024;-77
2022/10/12 01:10:39;;;;;;;52.85;40.50;;;14.30;99.90;;;;;;4787674;30;20073;-77
2022/10/12 01:13:05;;;;;;;56.38;38.55;;;14.30;99.90;;;;;;4787722;30;20120;-77
2022/10/12 01:15:45;;;;;;;50.88;40.55;;;14.40;99.90;;;;;;4787614;30;20475;-78
2022/10/12 01:18:24;;;;;;;50.88;38.78;;;14.30;99.90;;;;;;4787488;30;20066;-77
2022/10/12 01:20:59;;;;;;;55.35;38.38;;;14.30;99.90;;;;;;4787538;30;20054;-77
2022/10/12 01:23:39;;;;;;;53.13;39.47;;;14.30;99.90;;;;;;4787303;30;20031;-77
2022/10/12 01:26:43;;;;;;;52.05;38.13;;;14.30;99.90;;;;;;4787453;30;20027;-76
2022/10/12 01:29:34;;;;;;;52.08;37.08;;;14.30;99.90;;;;;;4787084;30;20084;-76
2022/10/12 01:32:37;;;;;;;50.38;37.47;;;14.30;99.90;;;;;;4787194;30;20044;-76
2022/10/12 01:35:09;;;;;;;54.45;39.40;;;14.20;99.90;;;;;;4696987;30;20041;-76
2022/10/12 01:37:53;;;;;;;49.60;37.05;;;14.20;99.90;;;;;;4685372;30;20049;-77
2022/10/12 01:40:48;;;;;;;50.95;39.60;;;14.20;99.90;;;;;;4686966;30;20092;-77
2022/10/12 01:43:17;;;;;;;54.28;39.72;;;14.20;99.90;;;;;;4690313;30;20102;-76
2022/10/12 01:45:43;;;;;;;54.58;40.20;;;14.20;99.90;;;;;;4696639;30;20042;-76
2022/10/12 01:48:09;;;;;;;58.33;39.00;;;14.20;99.90;;;;;;4696891;30;20088;-76
2022/10/12 01:50:52;;;;;;;57.10;37.80;;;14.20;99.90;;;;;;4697251;30;20061;-76
2022/10/12 01:53:45;;;;;;;46.22;34.95;;;14.20;99.90;;;;;;4696783;30;20042;-77
2022/10/12 01:56:24;;;;;;;47.43;34.03;;;14.20;99.90;;;;;;4696738;30;20503;-76
2022/10/12 01:59:11;;;;;;;44.28;34.15;;;14.20;99.90;;;;;;4696588;30;20314;-75
2022/10/12 02:01:47;;;;;;;45.50;31.98;;;14.10;99.90;;;;;;4696649;30;20166;-77
2022/10/12 02:04:27;;;;;;;45.45;34.45;;;14.00;99.90;;;;;;4696961;30;20049;-77
2022/10/12 02:07:00;;;;;;;44.72;33.17;;;14.00;99.90;;;;;;4685550;30;20101;-77
2022/10/12 02:09:34;;;;;;;44.47;33.00;;;14.00;99.90;;;;;;4696613;30;20033;-77
2022/10/12 02:12:16;;;;;;;47.30;36.20;;;14.00;99.90;;;;;;4767790;30;20059;-77
2022/10/12 02:14:47;;;;;;;39.08;29.63;;;14.00;99.90;;;;;;4786692;29;20036;-75
2022/10/12 02:17:17;;;;;;;41.17;30.55;;;14.00;99.90;;;;;;4786883;30;20541;-77
2022/10/12 02:19:51;;;;;;;36.97;28.90;;;13.90;99.90;;;;;;4786902;30;20080;-77
2022/10/12 02:22:17;;;;;;;43.67;33.25;;;13.90;99.90;;;;;;4786957;30;20031;-76
2022/10/12 02:24:46;;;;;;;47.42;35.67;;;13.80;99.90;;;;;;4786557;30;20442;-75
2022/10/12 02:27:14;;;;;;;45.30;34.10;;;13.90;99.90;;;;;;4786748;30;20043;-77
2022/10/12 02:29:43;;;;;;;38.83;30.13;;;13.90;99.90;;;;;;4786749;30;20088;-78
2022/10/12 02:32:09;;;;;;;52.90;35.70;;;13.90;99.90;;;;;;4786505;30;20367;-77
2022/10/12 02:34:44;;;;;;;45.22;31.92;;;13.90;99.90;;;;;;4786801;30;20030;-76
2022/10/12 02:37:34;;;;;;;43.30;33.47;;;13.90;99.90;;;;;;4786695;29;20043;-78
2022/10/12 02:40:09;;;;;;;46.00;33.45;;;14.00;99.90;;;;;;4786539;30;20104;-76
2022/10/12 02:42:39;;;;;;;49.17;36.17;;;14.00;99.90;;;;;;4786581;30;20491;-77
2022/10/12 02:45:08;;;;;;;83.25;59.70;;;14.00;99.90;;;;;;4786683;30;20412;-75
2022/10/12 02:47:35;;;;;;;59.63;43.10;;;14.00;99.90;;;;;;4786511;30;20046;-77
2022/10/12 02:50:02;;;;;;;58.35;44.42;;;14.00;99.90;;;;;;4786656;30;20471;-75
2022/10/12 02:52:30;;;;;;;60.15;39.20;;;14.00;99.90;;;;;;4786603;30;20039;-76
2022/10/12 02:54:56;;;;;;;53.63;39.10;;;14.00;99.90;;;;;;4786643;30;20035;-77
2022/10/12 02:57:22;;;;;;;51.65;38.40;;;14.00;99.90;;;;;;4776276;30;20042;-75
2022/10/12 02:59:48;;;;;;;51.00;37.03;;;14.10;99.90;;;;;;4789235;30;20595;-76
2022/10/12 03:02:14;;;;;;;50.50;35.88;;;14.10;99.90;;;;;;4789416;30;20046;-76
2022/10/12 03:04:40;;;;;;;56.97;38.85;;;14.10;99.90;;;;;;4789725;30;20039;-77
2022/10/12 03:07:05;;;;;;;52.17;37.92;;;14.20;99.90;;;;;;4789259;30;20549;-78
2022/10/12 03:09:31;;;;;;;50.08;38.97;;;14.20;99.90;;;;;;4789321;30;20031;-76
2022/10/12 03:11:57;;;;;;;51.10;37.70;;;14.20;99.90;;;;;;4781305;30;20031;-77
2022/10/12 03:14:25;;;;;;;51.85;37.60;;;14.20;99.90;;;;;;4787071;30;20031;-75
2022/10/12 03:16:51;;;;;;;52.17;38.70;;;14.30;99.90;;;;;;4789396;30;20027;-76
2022/10/12 03:19:17;;;;;;;48.50;37.85;;;14.20;99.90;;;;;;4789266;30;20169;-76
2022/10/12 03:21:43;;;;;;;49.53;38.45;;;14.20;99.90;;;;;;4779283;30;20373;-76
2022/10/12 03:24:09;;;;;;;42.75;32.42;;;14.20;99.90;;;;;;4786276;30;20058;-76
2022/10/12 03:26:34;;;;;;;51.22;35.85;;;14.20;99.90;;;;;;4784376;30;20058;-76
2022/10/12 03:29:00;;;;;;;49.60;35.65;;;14.30;99.90;;;;;;4788875;30;20467;-75
2022/10/12 03:31:26;;;;;;;62.22;46.00;;;14.40;99.90;;;;;;4788448;30;20368;-74
2022/10/12 03:33:52;;;;;;;58.08;44.67;;;14.40;99.90;;;;;;4789157;30;20031;-77
2022/10/12 03:36:18;;;;;;;62.10;42.03;;;14.40;99.90;;;;;;4788902;30;20122;-75
2022/10/12 03:38:44;;;;;;;59.38;43.97;;;14.40;99.90;;;;;;4788883;30;20549;-75
2022/10/12 03:41:09;;;;;;;94.00;70.45;;;14.40;99.90;;;;;;4789055;30;20039;-75
2022/10/12 03:43:35;;;;;;;63.80;48.15;;;14.40;99.90;;;;;;4788983;30;20047;-77
2022/10/12 03:46:01;;;;;;;55.33;39.33;;;14.40;99.90;;;;;;4789056;29;20042;-76
2022/10/12 03:48:27;;;;;;;59.88;40.25;;;14.30;99.90;;;;;;4789003;30;20050;-77
2022/10/12 03:50:52;;;;;;;58.90;40.97;;;14.20;99.90;;;;;;4789121;29;20110;-76
2022/10/12 03:53:19;;;;;;;56.83;42.80;;;14.10;99.90;;;;;;4772528;29;20062;-76
2022/10/12 03:55:45;;;;;;;59.08;44.45;;;14.00;99.90;;;;;;4788912;30;20027;-76
2022/10/12 03:58:11;;;;;;;58.05;43.05;;;14.10;99.90;;;;;;4788759;30;20035;-76
2022/10/12 04:00:37;;;;;;;56.88;42.40;;;14.10;99.90;;;;;;4788486;30;20060;-74
2022/10/12 04:03:03;;;;;;;58.72;43.40;;;14.10;99.90;;;;;;4788469;29;20531;-76
2022/10/12 04:05:31;;;;;;;60.13;43.70;;;14.20;99.90;;;;;;4788744;30;20107;-75
2022/10/12 04:07:57;;;;;;;55.15;43.65;;;14.20;99.90;;;;;;4788062;29;20046;-75
2022/10/12 04:10:23;;;;;;;60.25;42.25;;;14.30;99.90;;;;;;4788196;30;20020;-77
2022/10/12 04:12:49;;;;;;;56.03;40.28;;;14.40;99.90;;;;;;4787893;30;20067;-77
2022/10/12 04:15:16;;;;;;;56.38;40.45;;;14.40;99.90;;;;;;4788341;30;20023;-76
2022/10/12 04:17:43;;;;;;;51.30;40.17;;;14.40;99.90;;;;;;4788123;29;20391;-76
2022/10/12 04:20:10;;;;;;;55.55;42.83;;;14.30;99.90;;;;;;4787961;30;20434;-74
2022/10/12 04:22:36;;;;;;;52.15;39.45;;;14.30;99.90;;;;;;4787931;30;20040;-75
2022/10/12 04:25:02;;;;;;;57.67;41.63;;;14.30;99.90;;;;;;4788242;30;20114;-77
2022/10/12 04:27:28;;;;;;;58.75;44.70;;;14.30;99.90;;;;;;4787761;30;20121;-76
2022/10/12 04:29:54;;;;;;;59.45;42.53;;;14.30;99.90;;;;;;4788175;30;20027;-76
2022/10/12 04:32:20;;;;;;;61.03;46.20;;;14.40;99.90;;;;;;4787937;30;20031;-76
2022/10/12 04:34:45;;;;;;;62.53;44.20;;;14.40;99.90;;;;;;4787673;30;20036;-76
2022/10/12 04:37:11;;;;;;;60.05;43.38;;;14.40;99.90;;;;;;4787639;29;20399;-77
2022/10/12 04:39:37;;;;;;;54.75;41.05;;;14.40;99.90;;;;;;4787726;30;20088;-76
2022/10/12 04:42:03;;;;;;;52.85;40.60;;;14.40;99.90;;;;;;4787623;30;20440;-77
2022/10/12 04:44:29;;;;;;;56.35;40.70;;;14.40;99.90;;;;;;4787632;30;20027;-76
2022/10/12 04:46:55;;;;;;;64.28;46.08;;;14.40;99.90;;;;;;4787992;30;20356;-77
2022/10/12 04:49:20;;;;;;;62.05;44.47;;;14.40;99.90;;;;;;4787562;30;20039;-76
2022/10/12 04:51:46;;;;;;;58.28;44.33;;;14.40;99.90;;;;;;4787679;30;20046;-75
2022/10/12 04:54:12;;;;;;;72.22;50.15;;;14.40;99.90;;;;;;4787496;30;20083;-76
2022/10/12 04:56:38;;;;;;;72.70;49.92;;;14.30;99.90;;;;;;4787725;30;20032;-76
2022/10/12 04:59:04;;;;;;;56.67;41.67;;;14.30;99.90;;;;;;4787825;30;20063;-76
2022/10/12 05:01:30;;;;;;;56.58;42.63;;;14.30;99.90;;;;;;4787381;30;20035;-75
2022/10/12 05:03:56;;;;;;;61.03;42.63;;;14.30;99.90;;;;;;4787651;30;20035;-76
2022/10/12 05:06:22;;;;;;;56.28;41.47;;;14.20;99.90;;;;;;4787588;30;20034;-76
2022/10/12 05:08:47;;;;;;;55.97;39.83;;;14.20;99.90;;;;;;4786974;30;20035;-75
2022/10/12 05:11:13;;;;;;;55.58;39.55;;;14.20;99.90;;;;;;4787155;30;20028;-76
2022/10/12 05:13:39;;;;;;;55.63;38.55;;;14.20;99.90;;;;;;4787495;30;20034;-76
2022/10/12 05:16:05;;;;;;;52.03;40.40;;;14.10;99.90;;;;;;4787547;30;20089;-76
2022/10/12 05:18:31;;;;;;;55.40;39.80;;;14.10;99.90;;;;;;4787370;30;20371;-76
2022/10/12 05:20:57;;;;;;;55.53;37.58;;;14.00;99.90;;;;;;4786413;30;20039;-76
2022/10/12 05:23:22;;;;;;;53.15;38.30;;;14.00;99.90;;;;;;4787337;30;20110;-77
2022/10/12 05:25:48;;;;;;;56.33;41.03;;;14.00;99.90;;;;;;4787363;30;20065;-76
2022/10/12 05:28:14;;;;;;;57.50;39.22;;;13.90;99.90;;;;;;4787419;30;20027;-78
2022/10/12 05:30:40;;;;;;;48.65;40.08;;;13.90;99.90;;;;;;4787549;30;20125;-77
2022/10/12 05:33:05;;;;;;;49.83;38.03;;;14.00;99.90;;;;;;4787410;30;20124;-75
2022/10/12 05:35:31;;;;;;;52.65;40.38;;;14.00;99.90;;;;;;4787097;30;20446;-77
2022/10/12 05:37:57;;;;;;;56.08;40.22;;;14.00;99.90;;;;;;4787147;30;20034;-77
2022/10/12 05:40:23;;;;;;;54.47;41.75;;;14.10;99.90;;;;;;4787229;30;20483;-76
2022/10/12 05:42:49;;;;;;;54.13;40.33;;;14.10;99.90;;;;;;4786681;29;20051;-77
2022/10/12 05:45:14;;;;;;;52.05;39.85;;;14.00;99.90;;;;;;4786232;30;20054;-77
2022/10/12 05:47:40;;;;;;;49.60;39.30;;;14.00;99.90;;;;;;4786756;30;20495;-76
2022/10/12 05:50:07;;;;;;;54.47;40.65;;;14.20;99.90;;;;;;4787116;30;20487;-77
2022/10/12 05:52:32;;;;;;;50.45;36.50;;;14.30;99.90;;;;;;4787245;30;20024;-77
2022/10/12 05:54:58;;;;;;;50.70;37.60;;;14.60;99.90;;;;;;4786901;30;20149;-76
2022/10/12 05:57:24;;;;;;;51.33;37.83;;;14.60;99.90;;;;;;4787181;30;20023;-76
2022/10/12 05:59:50;;;;;;;55.75;39.47;;;14.70;99.90;;;;;;4786768;29;20071;-76
2022/10/12 06:02:17;;;;;;;53.05;40.60;;;14.80;99.90;;;;;;4783851;30;20114;-76
2022/10/12 06:04:42;;;;;;;51.72;38.42;;;14.90;99.90;;;;;;4781102;30;20024;-77
2022/10/12 06:07:08;;;;;;;47.53;36.55;;;14.90;99.90;;;;;;4783879;30;20036;-75
2022/10/12 06:09:37;;;;;;;42.90;34.67;;;15.00;99.90;;;;;;4785933;30;20066;-76
2022/10/12 06:12:04;;;;;;;45.00;36.40;;;15.10;99.90;;;;;;4786525;29;20035;-75
2022/10/12 06:14:30;;;;;;;44.95;37.08;;;15.10;99.90;;;;;;4785792;30;20547;-77
2022/10/12 06:16:55;;;;;;;50.45;38.40;;;15.10;99.90;;;;;;4786041;30;20035;-76
2022/10/12 06:19:21;;;;;;;66.93;46.75;;;15.30;99.90;;;;;;4786160;30;20494;-77
2022/10/12 06:21:47;;;;;;;67.55;46.65;;;15.30;99.90;;;;;;4786180;30;20509;-76
2022/10/12 06:24:13;;;;;;;69.57;49.65;;;15.40;99.90;;;;;;4785920;30;20077;-76
2022/10/12 06:26:39;;;;;;;70.88;50.35;;;15.50;99.90;;;;;;4786109;29;20041;-76
2022/10/12 06:29:04;;;;;;;63.92;47.45;;;15.60;99.90;;;;;;4785876;30;20420;-76
2022/10/12 06:31:32;;;;;;;62.83;43.75;;;15.70;99.90;;;;;;4787844;29;20054;-76
2022/10/12 06:33:58;;;;;;;65.32;43.03;;;15.80;99.90;;;;;;4789592;29;20035;-77
2022/10/12 06:36:24;;;;;;;58.53;44.70;;;15.70;99.90;;;;;;4789467;30;20110;-76
2022/10/12 06:38:50;;;;;;;52.70;43.30;;;15.70;99.90;;;;;;4789700;30;20164;-77
2022/10/12 06:41:16;;;;;;;54.60;44.10;;;15.60;99.90;;;;;;4789030;29;20035;-76
2022/10/12 06:43:42;;;;;;;55.28;40.67;;;15.60;99.90;;;;;;4789374;30;20505;-76
2022/10/12 06:46:08;;;;;;;48.50;41.03;;;15.50;99.90;;;;;;4789517;30;20110;-75
2022/10/12 06:48:46;;;;;;;53.17;40.00;;;15.50;99.90;;;;;;4783190;29;20567;-77
2022/10/12 06:51:12;;;;;;;55.47;42.85;;;15.50;99.90;;;;;;4770534;30;20066;-75
2022/10/12 06:53:41;;;;;;;49.70;38.13;;;15.60;99.90;;;;;;4789030;30;20550;-74
2022/10/12 06:56:08;;;;;;;54.53;41.75;;;15.60;99.90;;;;;;4789838;30;20032;-77
2022/10/12 06:58:34;;;;;;;49.78;37.80;;;15.70;99.90;;;;;;4789221;30;20038;-73
2022/10/12 07:01:02;;;;;;;51.75;39.08;;;15.90;99.90;;;;;;4788190;29;20036;-74
2022/10/12 07:03:28;;;;;;;49.30;39.38;;;16.00;99.90;;;;;;4788182;30;20135;-76
2022/10/12 07:05:54;;;;;;;56.67;41.08;;;16.00;99.90;;;;;;4787999;30;20081;-77
2022/10/12 07:08:21;;;;;;;58.47;42.88;;;16.00;99.90;;;;;;4788210;30;20033;-77
2022/10/12 07:10:46;;;;;;;56.20;41.90;;;16.00;99.90;;;;;;4788207;30;20058;-77
2022/10/12 07:13:13;;;;;;;52.20;40.42;;;15.90;99.90;;;;;;4788302;30;20479;-77
2022/10/12 07:15:38;;;;;;;51.83;40.20;;;16.00;99.90;;;;;;4787989;30;20563;-77
2022/10/12 07:18:04;;;;;;;51.28;40.35;;;16.00;99.90;;;;;;4787995;30;20106;-77
2022/10/12 07:20:30;;;;;;;52.38;39.85;;;16.10;99.90;;;;;;4788077;30;20092;-76
2022/10/12 07:22:56;;;;;;;55.35;42.78;;;16.10;99.90;;;;;;4788518;30;20126;-77
2022/10/12 07:25:21;;;;;;;53.63;43.13;;;16.20;99.90;;;;;;4788984;30;20042;-77
2022/10/12 07:27:48;;;;;;;55.90;41.10;;;16.20;99.90;;;;;;4788767;30;20028;-77
2022/10/12 07:30:14;;;;;;;51.30;40.05;;;16.20;99.90;;;;;;4789359;30;20047;-77
2022/10/12 07:32:41;;;;;;;50.83;38.38;;;16.30;99.90;;;;;;4788996;30;20443;-77
2022/10/12 07:35:07;;;;;;;55.90;38.25;;;16.40;99.90;;;;;;4789071;30;20045;-77
2022/10/12 07:37:33;;;;;;;52.80;39.60;;;16.50;99.90;;;;;;4789038;30;20467;-76
2022/10/12 07:39:59;;;;;;;52.35;38.40;;;16.50;99.90;;;;;;4787360;30;20038;-77
2022/10/12 07:42:24;;;;;;;50.85;40.13;;;16.50;99.90;;;;;;4776063;29;20036;-77
2022/10/12 07:44:50;;;;;;;52.28;35.83;;;16.50;99.90;;;;;;4783226;30;20027;-77
2022/10/12 07:47:16;;;;;;;54.03;39.72;;;16.50;99.90;;;;;;4788652;29;20062;-74
2022/10/12 07:49:42;;;;;;;56.65;40.10;;;16.50;99.90;;;;;;4783626;30;20039;-77
2022/10/12 07:52:08;;;;;;;53.33;38.60;;;16.60;99.90;;;;;;4788719;30;20031;-73
2022/10/12 07:54:34;;;;;;;48.88;38.22;;;16.60;99.90;;;;;;4785848;30;20567;-77
2022/10/12 07:56:59;;;;;;;52.58;39.38;;;16.70;99.90;;;;;;4788552;30;20031;-77
2022/10/12 07:59:25;;;;;;;53.30;39.13;;;16.80;99.90;;;;;;4788281;30;20059;-77
2022/10/12 08:01:51;;;;;;;49.28;38.42;;;16.80;99.90;;;;;;4788898;30;20078;-77
2022/10/12 08:04:17;;;;;;;50.30;37.22;;;16.80;99.90;;;;;;4788516;30;20046;-77
2022/10/12 08:06:43;;;;;;;44.83;35.38;;;16.90;99.90;;;;;;4788650;30;20031;-77
2022/10/12 08:09:09;;;;;;;55.45;42.42;;;16.90;99.90;;;;;;4788554;30;20506;-76
2022/10/12 08:11:39;;;;;;;51.28;39.55;;;16.90;99.90;;;;;;4788369;30;20039;-77
2022/10/12 08:14:06;;;;;;;53.35;40.15;;;16.70;99.90;;;;;;4791747;29;20038;-78
2022/10/12 08:16:32;;;;;;;58.92;39.13;;;16.70;99.90;;;;;;4788363;30;20463;-77
2022/10/12 08:18:59;;;;;;;48.83;39.47;;;16.80;99.90;;;;;;4788579;29;20208;-77
2022/10/12 08:21:25;;;;;;;49.78;39.72;;;16.70;99.90;;;;;;4789498;29;20423;-78
2022/10/12 08:23:50;;;;;;;56.28;39.97;;;16.80;99.90;;;;;;4788049;30;20554;-77
2022/10/12 08:26:16;;;;;;;61.08;39.10;;;16.90;99.90;;;;;;4788429;30;20063;-78
2022/10/12 08:28:43;;;;;;;51.70;39.17;;;17.10;99.90;;;;;;4787687;30;20122;-77
2022/10/12 08:31:15;;;;;;;49.80;38.92;;;17.10;99.90;;;;;;4788239;29;20036;-77
2022/10/12 08:33:41;;;;;;;47.47;38.55;;;17.30;99.90;;;;;;4788093;29;20031;-76
2022/10/12 08:36:08;;;;;;;54.35;38.40;;;17.20;99.90;;;;;;4783571;30;20390;-77
2022/10/12 08:38:37;;;;;;;51.65;38.95;;;17.10;99.90;;;;;;4787948;30;20058;-77
2022/10/12 08:41:22;;;;;;;50.25;37.67;;;17.20;99.90;;;;;;4790408;29;20032;-78
2022/10/12 08:44:25;;;;;;;56.17;38.30;;;17.40;99.90;;;;;;4770885;30;20166;-77
2022/10/12 08:47:08;;;;;;;;;;;17.40;99.90;;;;;;4780326;30;20040;-77
2022/10/12 08:49:38;;;;;;;50.10;38.13;;;17.00;99.90;;;;;;4782801;30;19918;-77
2022/10/12 08:52:11;;;;;;;53.22;37.10;;;17.20;99.90;;;;;;4782924;30;20035;-77
2022/10/12 08:54:44;;;;;;;51.92;39.15;;;17.40;99.90;;;;;;4783606;29;20067;-77
2022/10/12 08:57:18;;;;;;;52.55;40.45;;;17.50;99.90;;;;;;4783461;30;20485;-77
2022/10/12 08:59:45;;;;;;;49.17;39.65;;;17.60;99.90;;;;;;4787121;30;20079;-76
2022/10/12 09:02:30;;;;;;;54.65;40.30;;;17.60;99.90;;;;;;4784780;30;20039;-77
2022/10/12 09:05:39;;;;;;;56.60;39.80;;;17.60;99.90;;;;;;4782290;30;20035;-77
2022/10/12 09:08:22;;;;;;;50.45;37.17;;;17.80;99.90;;;;;;4684327;30;20064;-77
2022/10/12 09:11:03;;;;;;;46.17;36.85;;;18.00;99.90;;;;;;4692503;30;20061;-78
2022/10/12 09:13:38;;;;;;;57.53;40.42;;;17.90;99.90;;;;;;4684235;30;20053;-77
2022/10/12 09:16:26;;;;;;;53.13;38.22;;;17.90;99.90;;;;;;4681436;30;20061;-77
2022/10/12 09:18:57;;;;;;;49.90;36.92;;;17.90;99.90;;;;;;4689325;30;20498;-77
2022/10/12 09:21:27;;;;;;;49.95;38.17;;;18.00;99.90;;;;;;4693317;30;20041;-77
2022/10/12 09:23:55;;;;;;;58.30;39.13;;;18.10;99.90;;;;;;4677648;30;20063;-77
2022/10/12 09:26:38;;;;;;;46.90;38.65;;;18.20;99.90;;;;;;4674650;30;20120;-76
2022/10/12 09:29:25;;;;;;;54.13;38.67;;;18.40;99.90;;;;;;4691644;30;20500;-77
2022/10/12 09:32:41;;;;;;;51.55;39.35;;;18.50;99.90;;;;;;4689260;30;20133;-77
2022/10/12 09:35:11;;;;;;;50.65;37.88;;;18.70;99.90;;;;;;4679568;30;20104;-77
2022/10/12 09:37:38;;;;;;;56.47;39.67;;;18.80;99.90;;;;;;4673824;30;20525;-77
2022/10/12 09:40:05;;;;;;;55.47;40.83;;;18.80;99.90;;;;;;4735915;30;20032;-77
2022/10/12 09:42:32;;;;;;;54.03;39.00;;;18.60;99.90;;;;;;4737829;30;20079;-78
2022/10/12 09:45:01;;;;;;;51.95;37.28;;;18.70;99.90;;;;;;4748005;30;20044;-77
2022/10/12 09:47:32;;;;;;;50.80;38.35;;;18.80;99.90;;;;;;4749424;30;20071;-77
2022/10/12 09:50:01;;;;;;;51.75;39.38;;;18.90;99.90;;;;;;4748574;30;20072;-76
2022/10/12 09:52:49;;;;;;;51.28;39.30;;;18.90;99.90;;;;;;4746188;30;20028;-77
2022/10/12 09:55:14;;;;;;;49.80;38.15;;;19.00;99.90;;;;;;4746252;30;20460;-77
2022/10/12 09:57:43;;;;;;;52.30;41.25;;;19.00;99.90;;;;;;4747721;30;20067;-76
2022/10/12 10:00:30;;;;;;;50.33;38.47;;;18.80;99.90;;;;;;4747380;30;20117;-77
2022/10/12 10:02:57;;;;;;;56.55;40.47;;;19.00;99.90;;;;;;4743948;30;20036;-77
2022/10/12 10:05:31;;;;;;;55.17;41.25;;;18.70;99.90;;;;;;4745742;30;20036;-77
2022/10/12 10:08:19;;;;;;;57.47;40.15;;;18.60;99.90;;;;;;4737409;30;20705;-77
2022/10/12 10:10:49;;;;;;;51.15;37.78;;;18.90;99.90;;;;;;4769539;30;20047;-77
2022/10/12 10:13:15;;;;;;;55.72;38.15;;;18.90;99.90;;;;;;4789988;30;20036;-78
2022/10/12 10:15:45;;;;;;;49.78;37.75;;;19.10;99.90;;;;;;4778202;30;20035;-77
2022/10/12 10:18:21;;;;;;;50.35;37.63;;;19.20;99.90;;;;;;4787947;29;20043;-77
2022/10/12 10:20:58;;;;;;;50.28;38.00;;;19.40;99.90;;;;;;4785903;29;20683;-77
2022/10/12 10:23:28;;;;;;;54.53;39.58;;;19.40;99.90;;;;;;4789154;30;20043;-76
2022/10/12 10:26:09;;;;;;;52.95;38.65;;;19.60;99.90;;;;;;4790022;30;20043;-78
2022/10/12 10:28:46;;;;;;;48.33;37.40;;;19.60;99.90;;;;;;4790226;29;20059;-78
2022/10/12 10:31:23;;;;;;;55.75;37.38;;;19.70;99.90;;;;;;4786978;30;20047;-78
2022/10/12 10:34:15;;;;;;;44.80;34.22;;;19.80;99.90;;;;;;4785211;30;20457;-73
2022/10/12 10:36:48;;;;;;;55.87;35.17;;;19.70;99.90;;;;;;4782547;30;20043;-77
2022/10/12 10:39:16;;;;;;;;;;;19.90;99.90;;;;;;4790724;30;20035;-77
2022/10/12 10:41:42;;;;;;;43.10;30.10;;;20.10;99.90;;;;;;4786415;29;19913;-77
2022/10/12 10:44:32;;;;;;;40.88;32.22;;;20.00;99.90;;;;;;4800005;29;20092;-77
2022/10/12 10:47:02;;;;;;;47.60;30.48;;;20.20;99.90;;;;;;4797750;29;20033;-77
2022/10/12 10:49:41;;;;;;;43.13;31.65;;;20.30;99.90;;;;;;4798417;29;20027;-78
2022/10/12 10:52:25;;;;;;;40.63;31.48;;;20.40;99.90;;;;;;4788358;29;20019;-77
2022/10/12 10:55:09;;;;;;;36.17;30.25;;;20.40;99.90;;;;;;4791394;29;20104;-77
2022/10/12 10:57:44;;;;;;;40.40;26.98;;;20.20;99.90;;;;;;4794041;29;20047;-75
2022/10/12 11:00:20;;;;;;;39.08;31.17;;;20.10;99.90;;;;;;4787546;30;20055;-77
2022/10/12 11:02:56;;;;;;;41.33;28.70;;;20.20;99.90;;;;;;4790783;29;20386;-77
2022/10/12 11:05:34;;;;;;;39.38;27.77;;;20.30;99.90;;;;;;4794062;29;20036;-76
2022/10/12 11:08:22;;;;;;;37.40;28.38;;;20.40;99.90;;;;;;4795853;29;20039;-76
2022/10/12 11:10:53;;;;;;;38.20;27.50;;;20.00;99.90;;;;;;4801966;29;20023;-76
2022/10/12 11:14:03;;;;;;;37.72;28.23;;;20.00;99.90;;;;;;4791134;29;20046;-76
2022/10/12 11:16:45;;;;;;;35.33;26.08;;;19.90;99.90;;;;;;4777409;29;20417;-76
2022/10/12 11:19:49;;;;;;;30.40;24.10;;;19.90;99.90;;;;;;4788841;29;20122;-75
2022/10/12 11:22:45;;;;;;;28.77;21.55;;;20.00;99.90;;;;;;4781621;29;20092;-77
2022/10/12 11:25:27;;;;;;;29.50;23.02;;;20.20;99.90;;;;;;4789998;29;20335;-77
2022/10/12 11:27:53;;;;;;;;;;;20.10;99.90;;;;;;4790525;29;20652;-77
2022/10/12 11:30:25;;;;;;;30.13;21.50;;;20.00;99.90;;;;;;4788012;29;19920;-77
2022/10/12 11:33:01;;;;;;;23.45;19.20;;;20.20;99.90;;;;;;4787667;29;20046;-75
2022/10/12 11:35:49;;;;;;;28.67;21.10;;;20.30;99.90;;;;;;4790281;29;20035;-77
2022/10/12 11:38:19;;;;;;;28.33;21.17;;;20.40;99.90;;;;;;4792462;29;20048;-77
2022/10/12 11:41:02;;;;;;;30.17;22.58;;;20.50;99.90;;;;;;4788992;30;20031;-75
2022/10/12 11:43:51;;;;;;;28.40;21.67;;;20.40;99.90;;;;;;4773144;30;20180;-77
2022/10/12 11:46:31;;;;;;;31.80;21.35;;;20.30;99.90;;;;;;4788583;29;20046;-78
2022/10/12 11:49:14;;;;;;;32.63;24.35;;;20.30;99.90;;;;;;4789208;30;20318;-77
2022/10/12 11:51:47;;;;;;;27.75;22.02;;;20.40;99.90;;;;;;4788979;30;20046;-77
2022/10/12 11:54:31;;;;;;;29.92;22.80;;;20.20;99.90;;;;;;4788991;30;20406;-77
2022/10/12 11:57:02;;;;;;;35.15;23.75;;;20.50;99.90;;;;;;4789017;30;20122;-76
2022/10/12 11:59:52;;;;;;;31.50;23.83;;;20.50;99.90;;;;;;4787516;30;20043;-78
2022/10/12 12:02:44;;;;;;;32.35;22.75;;;20.30;99.90;;;;;;4778384;30;20050;-78
2022/10/12 12:05:12;;;;;;;33.38;23.63;;;20.30;99.90;;;;;;4788645;30;20039;-74
2022/10/12 12:07:55;;;;;;;31.27;22.65;;;20.40;99.90;;;;;;4790929;29;20027;-78
2022/10/12 12:11:18;;;;;;;30.58;22.42;;;20.30;99.90;;;;;;4789142;30;20027;-77
2022/10/12 12:13:32;;;;;;;29.23;21.20;;;20.30;99.90;;;;;;4781772;30;20055;-72
2022/10/12 12:15:58;;;;;;;27.45;20.90;;;20.40;99.90;;;;;;4772953;30;20450;-77
2022/10/12 12:18:27;;;;;;;28.45;21.20;;;20.50;99.90;;;;;;4788747;29;20027;-77
2022/10/12 12:20:59;;;;;;;29.80;21.80;;;20.50;99.90;;;;;;4788690;29;20044;-79
2022/10/12 12:23:30;;;;;;;33.58;21.08;;;20.50;99.90;;;;;;4789177;29;20038;-78
2022/10/12 12:26:11;;;;;;;29.58;21.38;;;20.40;99.90;;;;;;4787740;29;20122;-77
2022/10/12 12:28:53;;;;;;;28.30;21.05;;;20.50;99.90;;;;;;4791620;29;20112;-76
2022/10/12 12:31:22;;;;;;;;;;;20.30;99.90;;;;;;4801826;29;20062;-78
2022/10/12 12:33:59;;;;;;;31.75;22.10;;;20.40;99.90;;;;;;4795059;29;19937;-77
2022/10/12 12:36:34;;;;;;;27.77;20.30;;;20.50;99.90;;;;;;4789913;29;20042;-77
2022/10/12 12:39:25;;;;;;;25.83;21.00;;;20.30;99.90;;;;;;4792818;29;20110;-78
2022/10/12 12:41:51;;;;;;;32.90;22.02;;;20.30;99.90;;;;;;4799923;29;20126;-72
2022/10/12 12:44:43;;;;;;;32.33;24.90;;;20.30;99.90;;;;;;4795412;29;20468;-76
2022/10/12 12:47:09;;;;;;;28.63;22.00;;;20.30;99.90;;;;;;4789080;29;20386;-78
2022/10/12 12:49:59;;;;;;;30.50;21.75;;;20.30;99.90;;;;;;4796746;29;20019;-76